Time;durP1;ratioP1;P1;durP2;ratioP2;P2;SDS_P1;SDS_P2;PMS_P1;PMS_P2;Temp;Humidity;BMP_temperature;BMP_pressure;BME280_temperature;BME280_humidity;BME280_pressure;Samples;Min_cycle;Max_cycle;Signal;HPM_P1;HPM_P2
2023/10/23 00:01:16;;;;;;;;;;;11.30;99.90;;;;;;4995351;28;20064;-66
2023/10/23 00:03:42;;;;;;;;;;;11.30;99.90;;;;;;4998401;28;19957;-66
2023/10/23 00:06:07;;;;;;;;;;;11.20;99.90;;;;;;4999712;28;19965;-66
2023/10/23 00:08:32;;;;;;;;;;;11.10;99.90;;;;;;4999482;28;19914;-66
2023/10/23 00:10:58;;;;;;;;;;;11.10;99.90;;;;;;4999031;28;19910;-66
2023/10/23 00:13:23;;;;;;;;;;;11.10;99.90;;;;;;4999225;28;19945;-66
2023/10/23 00:15:49;;;;;;;;;;;11.10;99.90;;;;;;4998696;28;19910;-66
2023/10/23 00:18:14;;;;;;;;;;;11.10;99.90;;;;;;4999496;28;19910;-66
2023/10/23 00:20:40;;;;;;;;;;;11.10;99.90;;;;;;4998948;28;19910;-66
2023/10/23 00:23:05;;;;;;;;;;;11.10;99.90;;;;;;4999043;28;20081;-67
2023/10/23 00:25:31;;;;;;;;;;;11.10;99.90;;;;;;4999059;28;19910;-66
2023/10/23 00:27:56;;;;;;;;;;;11.10;99.90;;;;;;4998571;28;20308;-66
2023/10/23 00:30:22;;;;;;;;;;;11.10;99.90;;;;;;4998422;28;19996;-67
2023/10/23 00:32:47;;;;;;;;;;;11.10;99.90;;;;;;4998526;28;19917;-67
2023/10/23 00:35:13;;;;;;;;;;;11.10;99.90;;;;;;4998354;28;19910;-66
2023/10/23 00:37:38;;;;;;;;;;;11.10;99.90;;;;;;4997041;28;20416;-66
2023/10/23 00:40:04;;;;;;;;;;;11.00;99.90;;;;;;4998130;28;19916;-66
2023/10/23 00:42:31;;;;;;;;;;;11.00;99.90;;;;;;4998725;28;19913;-66
2023/10/23 00:44:57;;;;;;;;;;;11.00;99.90;;;;;;4996492;28;20369;-66
2023/10/23 00:47:23;;;;;;;;;;;11.00;99.90;;;;;;4998065;28;19945;-66
2023/10/23 00:49:48;;;;;;;;;;;11.00;99.90;;;;;;4998670;28;19957;-66
2023/10/23 00:52:14;;;;;;;;;;;11.10;99.90;;;;;;4998764;28;19910;-66
2023/10/23 00:54:39;;;;;;;;;;;11.20;99.90;;;;;;4998569;28;20004;-66
2023/10/23 00:57:06;;;;;;;;;;;11.50;99.90;;;;;;4998428;28;19910;-66
2023/10/23 00:59:31;;;;;;;;;;;11.40;99.90;;;;;;4997855;28;19971;-67
2023/10/23 01:01:57;;;;;;;;;;;11.40;99.90;;;;;;4997830;28;19909;-66
2023/10/23 01:04:23;;;;;;;;;;;11.50;99.90;;;;;;4997769;28;19978;-66
2023/10/23 01:06:50;;;;;;;;;;;11.50;99.90;;;;;;4997915;28;19914;-67
2023/10/23 01:09:16;;;;;;;;;;;11.50;99.90;;;;;;4997923;28;19979;-66
2023/10/23 01:11:41;;;;;;;;;;;11.40;99.90;;;;;;4997131;28;19918;-66
2023/10/23 01:14:06;;;;;;;;;;;11.30;99.90;;;;;;4997376;28;19914;-66
2023/10/23 01:16:32;;;;;;;;;;;11.40;99.90;;;;;;4997592;28;19910;-66
2023/10/23 01:18:57;;;;;;;;;;;11.30;99.90;;;;;;4998081;28;20012;-66
2023/10/23 01:21:23;;;;;;;;;;;11.10;99.90;;;;;;4996946;28;19909;-66
2023/10/23 01:23:49;;;;;;;;;;;10.90;99.90;;;;;;4996537;28;19910;-66
2023/10/23 01:26:14;;;;;;;;;;;10.80;99.90;;;;;;4998227;28;20345;-67
2023/10/23 01:28:40;;;;;;;;;;;10.80;99.90;;;;;;4997975;28;19914;-66
2023/10/23 01:31:05;;;;;;;;;;;10.70;99.90;;;;;;4997083;28;19921;-66
2023/10/23 01:33:30;;;;;;;;;;;10.70;99.90;;;;;;4997216;28;19910;-66
2023/10/23 01:35:56;;;;;;;;;;;10.70;99.90;;;;;;4996770;28;20364;-66
2023/10/23 01:38:21;;;;;;;;;;;10.60;99.90;;;;;;4996978;28;19984;-66
2023/10/23 01:40:47;;;;;;;;;;;10.60;99.90;;;;;;4996856;28;19910;-66
2023/10/23 01:43:12;;;;;;;;;;;10.60;99.90;;;;;;4997394;28;19986;-66
2023/10/23 01:45:38;;;;;;;;;;;10.50;99.90;;;;;;4996258;28;20008;-66
2023/10/23 01:48:04;;;;;;;;;;;10.50;99.90;;;;;;4995412;28;19921;-66
2023/10/23 01:50:29;;;;;;;;;;;10.50;99.90;;;;;;4997315;28;19916;-66
2023/10/23 01:52:55;;;;;;;;;;;10.60;99.90;;;;;;4996767;28;19909;-67
2023/10/23 01:55:20;;;;;;;;;;;10.60;99.90;;;;;;4996389;28;19959;-67
2023/10/23 01:57:45;;;;;;;;;;;10.60;99.90;;;;;;4996749;28;19964;-67
2023/10/23 02:00:11;;;;;;;;;;;10.60;99.90;;;;;;4996357;28;19916;-67
2023/10/23 02:02:36;;;;;;;;;;;10.60;99.90;;;;;;4996213;28;20400;-67
2023/10/23 02:05:02;;;;;;;;;;;10.60;99.90;;;;;;4996245;28;20230;-66
2023/10/23 02:07:28;;;;;;;;;;;10.50;99.90;;;;;;4994648;28;19913;-67
2023/10/23 02:09:53;;;;;;;;;;;10.50;99.90;;;;;;4995878;28;19910;-67
2023/10/23 02:12:19;;;;;;;;;;;10.40;99.90;;;;;;4996127;28;19918;-67
2023/10/23 02:14:44;;;;;;;;;;;10.40;99.90;;;;;;4995712;28;20436;-68
2023/10/23 02:17:10;;;;;;;;;;;10.30;99.90;;;;;;4996142;28;19913;-67
2023/10/23 02:19:35;;;;;;;;;;;10.30;99.90;;;;;;4995974;28;20019;-67
2023/10/23 02:22:01;;;;;;;;;;;10.30;99.90;;;;;;4999075;28;19909;-67
2023/10/23 02:24:26;;;;;;;;;;;10.30;99.90;;;;;;5000335;28;19914;-67
2023/10/23 02:26:52;;;;;;;;;;;10.30;99.90;;;;;;4996237;28;19913;-67
2023/10/23 02:29:17;;;;;;;;;;;10.50;99.90;;;;;;4997222;28;20253;-66
2023/10/23 02:31:43;;;;;;;;;;;10.50;99.90;;;;;;4995795;28;19910;-67
2023/10/23 02:34:08;;;;;;;;;;;10.40;99.90;;;;;;4995393;28;19996;-67
2023/10/23 02:36:34;;;;;;;;;;;10.30;99.90;;;;;;4995375;28;19914;-67
2023/10/23 02:38:59;;;;;;;;;;;10.30;99.90;;;;;;5010281;28;19910;-67
2023/10/23 02:41:27;;;;;;;;;;;10.30;99.90;;;;;;4993571;28;19910;-67
2023/10/23 02:43:53;;;;;;;;;;;10.20;99.90;;;;;;4995134;28;19910;-67
2023/10/23 02:46:18;;;;;;;;;;;10.10;99.90;;;;;;4994881;28;19920;-67
2023/10/23 02:48:44;;;;;;;;;;;10.00;99.90;;;;;;4994902;28;20012;-67
2023/10/23 02:51:09;;;;;;;;;;;10.00;99.90;;;;;;4995199;28;19917;-67
2023/10/23 02:53:35;;;;;;;;;;;9.90;99.90;;;;;;4995058;28;19910;-67
2023/10/23 02:56:00;;;;;;;;;;;9.90;99.90;;;;;;4994909;28;19917;-66
2023/10/23 02:58:26;;;;;;;;;;;9.90;99.90;;;;;;4995395;28;19921;-66
2023/10/23 03:00:51;;;;;;;;;;;9.80;99.90;;;;;;4994805;28;19910;-67
2023/10/23 03:03:17;;;;;;;;;;;9.80;99.90;;;;;;4995051;28;19910;-66
2023/10/23 03:05:42;;;;;;;;;;;9.80;99.90;;;;;;4994909;28;19968;-66
2023/10/23 03:08:07;;;;;;;;;;;9.80;99.90;;;;;;4995132;28;19918;-66
2023/10/23 03:10:33;;;;;;;;;;;9.80;99.90;;;;;;4994523;28;19910;-67
2023/10/23 03:12:58;;;;;;;;;;;9.80;99.90;;;;;;4994473;28;20024;-66
2023/10/23 03:15:24;;;;;;;;;;;9.80;99.90;;;;;;4994384;28;19916;-66
2023/10/23 03:17:50;;;;;;;;;;;9.80;99.90;;;;;;4994486;28;20368;-65
2023/10/23 03:20:15;;;;;;;;;;;9.80;99.90;;;;;;4994794;28;19916;-67
2023/10/23 03:22:41;;;;;;;;;;;9.80;99.90;;;;;;4994160;28;19910;-66
2023/10/23 03:25:07;;;;;;;;;;;9.80;99.90;;;;;;4994467;28;19914;-66
2023/10/23 03:27:32;;;;;;;;;;;9.80;99.90;;;;;;4994196;28;19937;-67
2023/10/23 03:29:58;;;;;;;;;;;9.70;99.90;;;;;;4993937;28;19997;-68
2023/10/23 03:32:23;;;;;;;;;;;9.70;99.90;;;;;;4994418;28;19972;-66
2023/10/23 03:34:49;;;;;;;;;;;9.60;99.90;;;;;;4995038;28;19917;-66
2023/10/23 03:37:15;;;;;;;;;;;9.60;99.90;;;;;;4994142;28;19937;-66
2023/10/23 03:39:40;;;;;;;;;;;9.40;99.90;;;;;;4994156;28;19924;-66
2023/10/23 03:42:06;;;;;;;;;;;9.30;99.90;;;;;;4994398;28;19916;-66
2023/10/23 03:44:31;;;;;;;;;;;9.20;99.90;;;;;;4994028;28;19914;-66
2023/10/23 03:46:57;;;;;;;;;;;9.10;99.90;;;;;;4993711;28;20012;-66
2023/10/23 03:49:22;;;;;;;;;;;9.10;99.90;;;;;;4995178;28;19910;-67
2023/10/23 03:51:48;;;;;;;;;;;9.10;99.90;;;;;;4994855;28;19964;-67
2023/10/23 03:54:13;;;;;;;;;;;9.00;99.90;;;;;;4994204;28;19910;-67
2023/10/23 03:56:39;;;;;;;;;;;9.00;99.90;;;;;;4993864;28;20367;-67
2023/10/23 03:59:04;;;;;;;;;;;8.90;99.90;;;;;;4994121;28;20335;-67
2023/10/23 04:01:30;;;;;;;;;;;8.80;99.90;;;;;;4993762;28;19910;-67
2023/10/23 04:03:55;;;;;;;;;;;8.80;99.90;;;;;;4994926;28;19916;-67
2023/10/23 04:06:21;;;;;;;;;;;8.80;99.90;;;;;;4993324;28;20292;-67
2023/10/23 04:08:46;;;;;;;;;;;8.70;99.90;;;;;;4993878;28;19924;-67
2023/10/23 04:11:15;;;;;;;;;;;8.70;99.90;;;;;;4994091;28;19962;-67
2023/10/23 04:13:40;;;;;;;;;;;8.70;99.90;;;;;;4994053;28;19936;-67
2023/10/23 04:16:06;;;;;;;;;;;8.80;99.90;;;;;;5007599;23;19926;-67
2023/10/23 04:18:31;;;;;;;;;;;8.70;99.90;;;;;;4993653;28;19909;-67
2023/10/23 04:21:02;;;;;;;;;;;8.60;99.90;;;;;;4993541;28;19932;-67
2023/10/23 04:23:28;;;;;;;;;;;8.60;99.90;;;;;;4993819;28;19909;-67
2023/10/23 04:25:54;;;;;;;;;;;8.60;99.90;;;;;;4993344;28;19917;-67
2023/10/23 04:28:20;;;;;;;;;;;8.60;99.90;;;;;;4993377;28;19914;-67
2023/10/23 04:30:45;;;;;;;;;;;8.50;99.90;;;;;;4993583;28;20008;-67
2023/10/23 04:33:11;;;;;;;;;;;8.50;99.90;;;;;;4993600;28;19910;-67
2023/10/23 04:35:36;;;;;;;;;;;8.50;99.90;;;;;;4992092;28;19917;-67
2023/10/23 04:38:02;;;;;;;;;;;8.50;99.90;;;;;;4993359;28;19956;-67
2023/10/23 04:40:27;;;;;;;;;;;8.60;99.90;;;;;;4993295;28;19910;-67
2023/10/23 04:42:53;;;;;;;;;;;8.60;99.90;;;;;;4993548;28;19910;-67
2023/10/23 04:45:18;;;;;;;;;;;8.60;99.90;;;;;;4994930;28;19979;-67
2023/10/23 04:47:44;;;;;;;;;;;8.60;99.90;;;;;;4993272;28;20033;-67
2023/10/23 04:50:12;;;;;;;;;;;8.60;99.90;;;;;;4995655;28;19917;-66
2023/10/23 04:52:38;;;;;;;;;;;8.60;99.90;;;;;;4997141;28;20329;-66
2023/10/23 04:55:04;;;;;;;;;;;8.50;99.90;;;;;;4996686;28;19910;-66
2023/10/23 04:57:29;;;;;;;;;;;8.40;99.90;;;;;;4996863;28;19917;-67
2023/10/23 04:59:55;;;;;;;;;;;8.40;99.90;;;;;;4996680;28;19916;-67
2023/10/23 05:02:21;;;;;;;;;;;8.40;99.90;;;;;;4996697;28;19910;-66
2023/10/23 05:04:46;;;;;;;;;;;8.40;99.90;;;;;;4995552;28;19984;-66
2023/10/23 05:07:12;;;;;;;;;;;8.40;99.90;;;;;;4995389;28;19921;-66
2023/10/23 05:09:37;;;;;;;;;;;8.40;99.90;;;;;;4996717;28;19916;-67
2023/10/23 05:12:03;;;;;;;;;;;8.40;99.90;;;;;;4995261;28;19997;-68
2023/10/23 05:14:28;;;;;;;;;;;8.40;99.90;;;;;;4996554;28;19918;-68
2023/10/23 05:16:54;;;;;;;;;;;8.40;99.90;;;;;;4996070;28;19930;-68
2023/10/23 05:19:19;;;;;;;;;;;8.40;99.90;;;;;;4996766;28;19910;-69
2023/10/23 05:21:45;;;;;;;;;;;8.30;99.90;;;;;;4996677;28;19909;-66
2023/10/23 05:24:10;;;;;;;;;;;8.30;99.90;;;;;;4996768;28;19910;-65
2023/10/23 05:26:36;;;;;;;;;;;8.30;99.90;;;;;;4994866;28;19910;-66
2023/10/23 05:29:01;;;;;;;;;;;8.30;99.90;;;;;;4996288;28;19910;-65
2023/10/23 05:31:27;;;;;;;;;;;8.40;99.90;;;;;;4994565;28;20376;-66
2023/10/23 05:33:52;;;;;;;;;;;8.40;99.90;;;;;;4988632;28;19914;-68
2023/10/23 05:36:18;;;;;;;;;;;8.40;99.90;;;;;;4976605;28;19914;-68
2023/10/23 05:38:43;;;;;;;;;;;8.40;99.90;;;;;;4976653;28;20368;-68
2023/10/23 05:41:09;;;;;;;;;;;8.30;99.90;;;;;;4975054;28;19965;-68
2023/10/23 05:43:35;;;;;;;;;;;8.40;99.90;;;;;;4976707;28;19961;-66
2023/10/23 05:46:03;;;;;;;;;;;8.40;99.90;;;;;;4985558;28;19913;-67
2023/10/23 05:48:30;;;;;;;;;;;8.30;99.90;;;;;;4995898;28;20395;-67
2023/10/23 05:50:59;;;;;;;;;;;8.30;99.90;;;;;;4995613;28;19945;-66
2023/10/23 05:53:25;;;;;;;;;;;8.30;99.90;;;;;;4995657;28;19981;-66
2023/10/23 05:55:51;;;;;;;;;;;8.30;99.90;;;;;;4994315;28;20365;-68
2023/10/23 05:58:16;;;;;;;;;;;8.30;99.90;;;;;;4994728;28;19910;-67
2023/10/23 06:00:42;;;;;;;;;;;8.30;99.90;;;;;;4994379;28;19933;-68
2023/10/23 06:03:07;;;;;;;;;;;8.30;99.90;;;;;;4995260;28;19910;-66
2023/10/23 06:05:33;;;;;;;;;;;8.20;99.90;;;;;;4994083;28;19910;-66
2023/10/23 06:07:58;;;;;;;;;;;8.30;99.90;;;;;;4995346;28;19922;-65
2023/10/23 06:10:24;;;;;;;;;;;8.20;99.90;;;;;;4995166;28;19910;-66
2023/10/23 06:12:49;;;;;;;;;;;8.30;99.90;;;;;;4992508;28;19928;-66
2023/10/23 06:15:15;;;;;;;;;;;8.30;99.90;;;;;;4992860;28;19917;-66
2023/10/23 06:17:40;;;;;;;;;;;8.30;99.90;;;;;;4992207;28;20009;-67
2023/10/23 06:20:06;;;;;;;;;;;8.30;99.90;;;;;;4993020;28;19956;-66
2023/10/23 06:22:32;;;;;;;;;;;8.20;99.90;;;;;;4994829;28;19988;-68
2023/10/23 06:24:57;;;;;;;;;;;8.20;99.90;;;;;;4992582;28;19909;-68
2023/10/23 06:27:23;;;;;;;;;;;8.10;99.90;;;;;;4993409;28;19918;-67
2023/10/23 06:29:49;;;;;;;;;;;8.10;99.90;;;;;;4993550;28;19965;-67
2023/10/23 06:32:17;;;;;;;;;;;8.10;99.90;;;;;;4993463;28;19909;-67
2023/10/23 06:34:43;;;;;;;;;;;8.10;99.90;;;;;;4995163;28;20324;-67
2023/10/23 06:37:08;;;;;;;;;;;8.10;99.90;;;;;;4994739;28;19921;-67
2023/10/23 06:39:33;;;;;;;;;;;8.20;99.90;;;;;;4994992;28;20351;-67
2023/10/23 06:41:59;;;;;;;;;;;8.20;99.90;;;;;;4994663;28;20285;-67
2023/10/23 06:44:24;;;;;;;;;;;8.30;99.90;;;;;;4994604;28;20381;-67
2023/10/23 06:46:50;;;;;;;;;;;8.30;99.90;;;;;;4994193;28;19917;-66
2023/10/23 06:49:15;;;;;;;;;;;8.40;99.90;;;;;;4993221;28;19916;-67
2023/10/23 06:51:41;;;;;;;;;;;8.40;99.90;;;;;;4994296;28;20007;-67
2023/10/23 06:54:06;;;;;;;;;;;8.50;99.90;;;;;;4994346;28;19913;-67
2023/10/23 06:56:32;;;;;;;;;;;8.50;99.90;;;;;;4994300;28;19910;-66
2023/10/23 06:58:57;;;;;;;;;;;8.60;99.90;;;;;;4992813;28;19914;-69
2023/10/23 07:01:23;;;;;;;;;;;8.70;99.90;;;;;;4994344;28;20356;-68
2023/10/23 07:03:48;;;;;;;;;;;8.80;99.90;;;;;;4993146;28;19929;-69
2023/10/23 07:06:14;;;;;;;;;;;8.80;99.90;;;;;;4994537;28;20375;-65
2023/10/23 07:08:39;;;;;;;;;;;8.80;99.90;;;;;;4994463;28;19914;-66
2023/10/23 07:11:15;;;;;;;;;;;8.80;99.90;;;;;;4992347;28;19956;-67
2023/10/23 07:13:40;;;;;;;;;;;8.80;99.90;;;;;;4991803;28;19910;-66
2023/10/23 07:16:06;;;;;;;;;;;8.90;99.90;;;;;;4990400;28;20391;-67
2023/10/23 07:18:31;;;;;;;;;;;8.90;99.90;;;;;;4980450;28;20355;-68
2023/10/23 07:20:59;;;;;;;;;;;8.90;99.90;;;;;;4971573;28;19914;-69
2023/10/23 07:23:25;;;;;;;;;;;9.00;99.90;;;;;;4972874;28;20369;-68
2023/10/23 07:26:00;;;;;;;;;;;9.00;99.90;;;;;;4973097;28;19910;-68
2023/10/23 07:28:26;;;;;;;;;;;9.10;99.90;;;;;;4974638;28;19921;-67
2023/10/23 07:30:51;;;;;;;;;;;9.10;99.90;;;;;;4974426;28;19910;-67
2023/10/23 07:33:17;;;;;;;;;;;9.20;99.90;;;;;;4973391;28;19910;-66
2023/10/23 07:35:42;;;;;;;;;;;9.20;99.90;;;;;;4974505;28;19980;-67
2023/10/23 07:38:07;;;;;;;;;;;9.30;99.90;;;;;;4974801;28;19914;-66
2023/10/23 07:40:33;;;;;;;;;;;9.30;99.90;;;;;;4974756;28;19910;-67
2023/10/23 07:42:58;;;;;;;;;;;9.30;99.90;;;;;;4974429;28;19921;-69
2023/10/23 07:45:24;;;;;;;;;;;9.40;99.90;;;;;;4978757;28;19910;-70
2023/10/23 07:47:50;;;;;;;;;;;9.40;99.90;;;;;;4993935;28;19913;-70
2023/10/23 07:50:16;;;;;;;;;;;9.50;99.90;;;;;;4994003;28;19953;-69
2023/10/23 07:52:41;;;;;;;;;;;9.50;99.90;;;;;;4993927;28;19948;-69
2023/10/23 07:55:08;;;;;;;;;;;9.50;99.90;;;;;;4992563;28;20348;-69
2023/10/23 07:57:33;;;;;;;;;;;9.60;99.90;;;;;;4993940;28;20265;-69
2023/10/23 07:59:59;;;;;;;;;;;9.60;99.90;;;;;;4994016;28;19936;-71
2023/10/23 08:02:24;;;;;;;;;;;9.60;99.90;;;;;;4992390;28;20007;-71
2023/10/23 08:04:50;;;;;;;;;;;9.60;99.90;;;;;;4993567;28;19993;-72
2023/10/23 08:07:15;;;;;;;;;;;9.60;99.90;;;;;;4993378;28;19914;-72
2023/10/23 08:09:42;;;;;;;;;;;9.70;99.90;;;;;;4992481;28;19910;-71
2023/10/23 08:12:07;;;;;;;;;;;9.70;99.90;;;;;;4994008;28;19918;-71
2023/10/23 08:14:33;;;;;;;;;;;9.80;99.90;;;;;;4992441;28;20261;-71
2023/10/23 08:16:59;;;;;;;;;;;9.90;99.90;;;;;;4992471;28;20013;-71
2023/10/23 08:19:24;;;;;;;;;;;9.80;99.90;;;;;;4994017;28;19961;-71
2023/10/23 08:21:50;;;;;;;;;;;9.90;99.90;;;;;;4993626;28;19960;-71
2023/10/23 08:24:16;;;;;;;;;;;9.90;99.90;;;;;;4995571;28;19916;-71
2023/10/23 08:26:41;;;;;;;;;;;10.00;99.90;;;;;;4995897;28;20055;-71
2023/10/23 08:29:06;;;;;;;;;;;10.00;99.90;;;;;;4997422;28;19954;-71
2023/10/23 08:31:32;;;;;;;;;;;10.00;99.90;;;;;;4997552;28;20000;-70
2023/10/23 08:33:57;;;;;;;;;;;10.00;99.90;;;;;;4996193;28;19910;-71
2023/10/23 08:36:23;;;;;;;;;;;10.10;99.90;;;;;;4997324;28;20446;-71
2023/10/23 08:38:48;;;;;;;;;;;10.10;99.90;;;;;;4997400;28;19929;-71
2023/10/23 08:41:14;;;;;;;;;;;10.20;99.90;;;;;;4997228;28;19910;-71
2023/10/23 08:43:40;;;;;;;;;;;10.30;99.90;;;;;;4997289;28;19910;-71
2023/10/23 08:46:05;;;;;;;;;;;10.40;99.90;;;;;;4995470;28;19909;-71
2023/10/23 08:48:31;;;;;;;;;;;10.50;99.90;;;;;;4997021;28;20459;-71
2023/10/23 08:50:59;;;;;;;;;;;10.60;99.90;;;;;;4997317;28;19917;-71
2023/10/23 08:53:33;;;;;;;;;;;10.70;99.90;;;;;;4995719;28;19957;-71
2023/10/23 08:56:01;;;;;;;;;;;10.70;99.90;;;;;;4995852;28;19977;-71
2023/10/23 08:58:28;;;;;;;;;;;10.80;99.90;;;;;;4996889;28;19980;-70
2023/10/23 09:00:53;;;;;;;;;;;10.80;99.90;;;;;;4996724;28;19917;-71
2023/10/23 09:03:20;;;;;;;;;;;10.90;99.90;;;;;;4996993;28;20005;-71
2023/10/23 09:05:45;;;;;;;;;;;11.00;99.90;;;;;;4995447;28;19977;-71
2023/10/23 09:08:10;;;;;;;;;;;11.10;99.90;;;;;;4995677;28;20351;-71
2023/10/23 09:10:55;;;;;;;;;;;11.10;99.90;;;;;;4995124;28;20262;-71
2023/10/23 09:13:23;;;;;;;;;;;11.20;99.90;;;;;;4995207;28;20391;-71
2023/10/23 09:15:49;;;;;;;;;;;11.20;99.90;;;;;;4996462;28;20360;-71
2023/10/23 09:18:16;;;;;;;;;;;11.20;99.90;;;;;;4996377;28;19976;-71
2023/10/23 09:20:41;;;;;;;;;;;11.20;99.90;;;;;;4996631;28;19916;-71
2023/10/23 09:23:11;;;;;;;;;;;11.40;99.90;;;;;;4997810;28;19909;-72
2023/10/23 09:25:37;;;;;;;;;;;11.40;99.90;;;;;;4996684;28;20012;-71
2023/10/23 09:28:09;;;;;;;;;;;11.40;99.90;;;;;;4995115;28;19914;-71
2023/10/23 09:30:35;;;;;;;;;;;11.30;99.90;;;;;;4995066;28;20331;-71
2023/10/23 09:33:00;;;;;;;;;;;11.40;99.90;;;;;;4995951;28;19910;-71
2023/10/23 09:35:27;;;;;;;;;;;11.50;99.90;;;;;;4994251;28;20399;-71
2023/10/23 09:37:53;;;;;;;;;;;11.60;99.90;;;;;;4996028;28;19916;-71
2023/10/23 09:40:18;;;;;;;;;;;11.70;99.90;;;;;;4994908;28;20126;-71
2023/10/23 09:42:44;;;;;;;;;;;11.70;99.90;;;;;;4994932;28;19917;-71
2023/10/23 09:45:09;;;;;;;;;;;11.70;99.90;;;;;;4995783;28;19914;-71
2023/10/23 09:47:35;;;;;;;;;;;11.90;99.90;;;;;;4994565;28;19925;-69
2023/10/23 09:50:03;;;;;;;;;;;11.90;99.90;;;;;;4996009;28;19933;-70
2023/10/23 09:52:31;;;;;;;;;;;11.90;99.90;;;;;;4995091;28;19920;-70
2023/10/23 09:55:01;;;;;;;;;;;11.90;99.90;;;;;;4995653;28;19910;-70
2023/10/23 09:57:32;;;;;;;;;;;12.00;99.90;;;;;;4994451;28;19917;-71
2023/10/23 09:59:59;;;;;;;;;;;12.00;99.90;;;;;;4995913;28;19921;-70
2023/10/23 10:02:27;;;;;;;;;;;12.00;99.90;;;;;;4994162;28;20339;-70
2023/10/23 10:05:06;;;;;;;;;;;12.10;99.90;;;;;;4995531;28;19910;-71
2023/10/23 10:07:35;;;;;;;;;;;12.10;99.90;;;;;;4995928;28;19920;-70
2023/10/23 10:10:01;;;;;;;;;;;12.10;99.90;;;;;;4995616;28;20399;-68
2023/10/23 10:12:27;;;;;;;;;;;12.10;99.90;;;;;;4994031;28;19910;-68
2023/10/23 10:14:53;;;;;;;;;;;12.10;99.90;;;;;;4995279;28;19925;-68
2023/10/23 10:17:19;;;;;;;;;;;12.20;99.90;;;;;;5010441;23;20362;-63
2023/10/23 10:19:45;;;;;;;;;;;12.20;99.90;;;;;;5000941;28;19910;-63
2023/10/23 10:22:10;;;;;;;;;;;12.30;99.90;;;;;;4998737;28;19910;-63
2023/10/23 10:24:37;;;;;;;;;;;12.30;99.90;;;;;;4995085;28;20004;-64
2023/10/23 10:27:03;;;;;;;;;;;12.40;99.90;;;;;;4995086;28;19910;-64
2023/10/23 10:29:32;;;;;;;;;;;12.40;99.90;;;;;;4995619;28;19916;-65
2023/10/23 10:32:09;;;;;;;;;;;12.40;99.90;;;;;;4994930;28;19910;-64
2023/10/23 10:34:35;;;;;;;;;;;12.50;99.90;;;;;;4995056;28;19916;-64
2023/10/23 10:37:01;;;;;;;;;;;12.50;99.90;;;;;;4993856;28;20292;-64
2023/10/23 10:39:46;;;;;;;;;;;12.60;99.90;;;;;;4995030;28;19910;-63
2023/10/23 10:42:15;;;;;;;;;;;12.60;99.90;;;;;;4994867;28;19914;-63
2023/10/23 10:44:57;;;;;;;;;;;12.60;99.90;;;;;;4993565;28;19941;-64
2023/10/23 10:47:49;;;;;;;;;;;12.60;99.90;;;;;;4993504;28;19933;-64
2023/10/23 10:50:31;;;;;;;;;;;12.60;99.90;;;;;;4993820;28;19917;-65
2023/10/23 10:52:59;;;;;;;;;;;12.60;99.90;;;;;;4994567;28;19980;-64
2023/10/23 10:55:24;;;;;;;;;;;12.70;99.90;;;;;;4994803;28;19962;-64
2023/10/23 10:57:52;;;;;;;;;;;12.80;99.90;;;;;;4994521;28;19917;-64
2023/10/23 11:00:18;;;;;;;;;;;12.90;99.90;;;;;;4994827;28;19910;-64
2023/10/23 11:02:44;;;;;;;;;;;13.00;99.90;;;;;;4993240;28;19932;-64
2023/10/23 11:05:11;;;;;;;;;;;13.10;99.90;;;;;;4994603;28;20295;-65
2023/10/23 11:07:37;;;;;;;;;;;13.10;99.90;;;;;;4994865;28;19914;-64
2023/10/23 11:10:04;;;;;;;;;;;13.20;99.90;;;;;;4994444;28;19909;-63
2023/10/23 11:12:30;;;;;;;;;;;13.30;99.90;;;;;;4994716;28;19921;-67
2023/10/23 11:14:56;;;;;;;;;;;13.30;99.90;;;;;;4994861;28;19909;-64
2023/10/23 11:17:22;;;;;;;;;;;13.30;99.90;;;;;;4992704;28;19925;-64
2023/10/23 11:19:47;;;;;;;;;;;13.30;99.90;;;;;;4993453;28;20043;-64
2023/10/23 11:22:14;;;;;;;;;;;13.30;99.90;;;;;;4993068;28;19957;-64
2023/10/23 11:24:40;;;;;;;;;;;13.40;99.90;;;;;;4994723;28;19976;-65
2023/10/23 11:27:05;;;;;;;;;;;13.50;99.90;;;;;;4993920;28;19909;-65
2023/10/23 11:29:38;;;;;;;;;;;13.60;99.90;;;;;;4994041;28;20284;-65
2023/10/23 11:32:04;;;;;;;;;;;13.60;99.90;;;;;;4994167;28;19910;-63
2023/10/23 11:34:29;;;;;;;;;;;13.60;99.90;;;;;;4994313;28;20481;-64
2023/10/23 11:36:55;;;;;;;;;;;13.60;99.90;;;;;;4993936;28;20399;-64
2023/10/23 11:39:20;;;;;;;;;;;13.50;99.90;;;;;;4994256;28;19910;-64
2023/10/23 11:41:56;;;;;;;;;;;13.50;99.90;;;;;;4994010;28;19917;-64
2023/10/23 11:44:22;;;;;;;;;;;13.50;99.90;;;;;;4994259;28;19910;-64
2023/10/23 11:46:48;;;;;;;;;;;13.70;99.90;;;;;;4993840;28;20359;-67
2023/10/23 11:49:17;;;;;;;;;;;13.60;99.90;;;;;;4994008;28;19957;-65
2023/10/23 11:51:43;;;;;;;;;;;13.60;99.90;;;;;;4994883;28;19909;-64
2023/10/23 11:54:08;;;;;;;;;;;13.60;99.90;;;;;;4996714;28;19972;-65
2023/10/23 11:56:35;;;;;;;;;;;13.60;99.90;;;;;;4996900;28;19917;-65
2023/10/23 11:59:00;;;;;;;;;;;13.70;99.90;;;;;;4996872;28;19913;-65
2023/10/23 12:01:25;;;;;;;;;;;13.60;99.90;;;;;;4997787;28;19916;-65
2023/10/23 12:03:51;;;;;;;;;;;13.50;99.90;;;;;;4998058;28;20008;-67
2023/10/23 12:06:16;;;;;;;;;;;13.40;99.90;;;;;;4996453;28;19916;-66
2023/10/23 12:08:42;;;;;;;;;;;13.40;99.90;;;;;;4997159;28;19914;-66
2023/10/23 12:11:07;;;;;;;;;;;13.40;99.90;;;;;;4998152;28;19910;-67
2023/10/23 12:13:33;;;;;;;;;;;13.50;99.90;;;;;;4996678;28;19910;-67
2023/10/23 12:15:58;;;;;;;;;;;13.50;99.90;;;;;;4996088;28;19914;-67
2023/10/23 12:18:26;;;;;;;;;;;13.50;99.90;;;;;;4998407;28;19910;-67
2023/10/23 12:20:51;;;;;;;;;;;13.60;99.90;;;;;;4998371;28;19918;-67
2023/10/23 12:23:17;;;;;;;;;;;13.60;99.90;;;;;;4997905;28;19913;-67
2023/10/23 12:25:42;;;;;;;;;;;13.60;99.90;;;;;;4998551;28;19948;-67
2023/10/23 12:28:08;;;;;;;;;;;13.60;99.90;;;;;;4998171;28;20387;-68
2023/10/23 12:30:33;;;;;;;;;;;13.60;99.90;;;;;;4996514;28;20013;-67
2023/10/23 12:32:58;;;;;;;;;;;13.60;99.90;;;;;;4997401;28;20435;-67
2023/10/23 12:35:25;;;;;;;;;;;13.60;99.90;;;;;;4997442;28;19917;-68
2023/10/23 12:37:50;;;;;;;;;;;13.60;99.90;;;;;;4997635;28;19914;-68
2023/10/23 12:40:15;;;;;;;;;;;13.70;99.90;;;;;;4997325;28;20288;-67
2023/10/23 12:42:41;;;;;;;;;;;13.60;99.90;;;;;;4996098;28;19914;-66
2023/10/23 12:45:07;;;;;;;;;;;13.60;99.90;;;;;;4997502;28;19910;-67
2023/10/23 12:47:33;;;;;;;;;;;13.60;99.90;;;;;;4996865;28;19918;-67
2023/10/23 12:49:59;;;;;;;;;;;13.60;99.90;;;;;;4997249;28;20288;-67
2023/10/23 12:52:24;;;;;;;;;;;13.60;99.90;;;;;;4997072;28;19941;-67
2023/10/23 12:54:49;;;;;;;;;;;13.60;99.90;;;;;;4997142;28;19914;-67
2023/10/23 12:57:15;;;;;;;;;;;13.50;99.90;;;;;;4995642;28;19913;-66
2023/10/23 12:59:41;;;;;;;;;;;13.50;99.90;;;;;;4997141;28;19909;-67
2023/10/23 13:02:06;;;;;;;;;;;13.50;99.90;;;;;;4996793;28;19959;-67
2023/10/23 13:04:31;;;;;;;;;;;13.60;99.90;;;;;;4997296;28;19917;-67
2023/10/23 13:06:57;;;;;;;;;;;13.60;99.90;;;;;;4996862;28;19979;-67
2023/10/23 13:09:23;;;;;;;;;;;13.60;99.90;;;;;;4996652;28;19916;-67
2023/10/23 13:11:48;;;;;;;;;;;13.70;99.90;;;;;;4984919;28;19916;-67
2023/10/23 13:14:14;;;;;;;;;;;13.70;99.90;;;;;;4988347;28;19910;-67
2023/10/23 13:16:40;;;;;;;;;;;13.70;99.90;;;;;;4995749;28;19932;-67
2023/10/23 13:19:06;;;;;;;;;;;13.70;99.90;;;;;;4996947;28;19910;-67
2023/10/23 13:21:32;;;;;;;;;;;13.60;99.90;;;;;;4995340;28;19910;-68
2023/10/23 13:23:59;;;;;;;;;;;13.60;99.90;;;;;;4996057;28;20390;-68
2023/10/23 13:26:25;;;;;;;;;;;13.60;99.90;;;;;;4996807;28;19996;-69
2023/10/23 13:28:50;;;;;;;;;;;13.60;99.90;;;;;;4996658;28;19957;-67
2023/10/23 13:31:16;;;;;;;;;;;13.50;99.90;;;;;;4996746;28;19910;-68
2023/10/23 13:33:41;;;;;;;;;;;13.60;99.90;;;;;;4996727;28;20379;-68
2023/10/23 13:36:10;;;;;;;;;;;13.40;99.90;;;;;;4996526;28;19937;-69
2023/10/23 13:38:35;;;;;;;;;;;13.30;99.90;;;;;;4995705;28;20016;-67
2023/10/23 13:41:02;;;;;;;;;;;13.30;99.90;;;;;;4996320;28;20019;-67
2023/10/23 13:43:28;;;;;;;;;;;13.20;99.90;;;;;;4996313;28;19909;-68
2023/10/23 13:45:53;;;;;;;;;;;13.10;99.90;;;;;;4995991;28;20292;-69
2023/10/23 13:48:19;;;;;;;;;;;13.20;99.90;;;;;;4996038;28;20016;-69
2023/10/23 13:50:49;;;;;;;;;;;13.30;99.90;;;;;;4995280;28;19909;-68
2023/10/23 13:53:18;;;;;;;;;;;13.30;99.90;;;;;;4996140;28;19997;-66
2023/10/23 13:55:44;;;;;;;;;;;13.40;99.90;;;;;;4995998;28;19910;-65
2023/10/23 13:58:10;;;;;;;;;;;13.50;99.90;;;;;;4994326;28;19945;-67
2023/10/23 14:00:35;;;;;;;;;;;13.50;99.90;;;;;;4985532;28;20009;-66
2023/10/23 14:03:00;;;;;;;;;;;13.50;99.90;;;;;;4986469;28;19917;-67
2023/10/23 14:05:26;;;;;;;;;;;13.50;99.90;;;;;;4982579;28;19914;-68
2023/10/23 14:07:52;;;;;;;;;;;13.50;99.90;;;;;;4991813;28;19918;-67
2023/10/23 14:10:17;;;;;;;;;;;13.60;99.90;;;;;;4994390;28;19909;-69
2023/10/23 14:12:44;;;;;;;;;;;13.50;99.90;;;;;;4992151;28;20261;-69
2023/10/23 14:15:10;;;;;;;;;;;13.60;99.90;;;;;;4996945;28;19959;-69